Plumtree, North Carolina
Current Conditions -  °F | °C
As of 3:35 PM on Monday 24 Nov 2014 (Local Time) from KTNB Reporting Station
Clear Clear  
Wind Chill: 61°   Ceiling: Unl
Heat Index: 61°   Visibility: 10mi
Dew Point: 50°   Wind: 7mph
Humidity: 67%   Direction: 170°S
Pressure: 29.78"   Gusts: 18mph
Location:  36.03°N, 82.01°W
Report Text: KTNB 242035Z AUTO 17006G16KT 10SM CLR 16/10 A2978 RMK AO2 LTG DSNT SE T01610100
Loading
Personal Weather Stations






























Interactive Weather Map New forecast layout! Learn more

10-Day Weather Forecast

Advertisements
Track Severe Weather on mobile